Time;durP1;ratioP1;P1;durP2;ratioP2;P2;SDS_P1;SDS_P2;PMS_P1;PMS_P2;Temp;Humidity;BMP_temperature;BMP_pressure;BME280_temperature;BME280_humidity;BME280_pressure;Samples;Min_cycle;Max_cycle;Signal;HPM_P1;HPM_P2
2022/12/24 00:00:26;;;;;;;5.00;0.93;;;;;;;;;;5117718;28;20103;-53
2022/12/24 00:02:52;;;;;;;4.47;1.45;;;;;;;;;;5117046;28;20428;-57
2022/12/24 00:05:18;;;;;;;1.02;0.68;;;;;;;;;;5117613;28;20163;-56
2022/12/24 00:07:43;;;;;;;3.72;0.90;;;;;;;;;;5117361;28;20067;-58
2022/12/24 00:10:10;;;;;;;2.42;0.63;;;;;;;;;;5117186;28;20059;-54
2022/12/24 00:12:36;;;;;;;4.28;1.10;;;;;;;;;;5117047;28;20433;-57
2022/12/24 00:15:03;;;;;;;2.85;0.82;;;;;;;;;;5117460;28;20507;-54
2022/12/24 00:17:28;;;;;;;1.88;1.00;;;;;;;;;;5117045;28;20027;-57
2022/12/24 00:19:54;;;;;;;1.13;0.98;;;;;;;;;;5116996;28;20076;-54
2022/12/24 00:22:20;;;;;;;5.85;0.80;;;;;;;;;;5116976;28;20024;-58
2022/12/24 00:24:46;;;;;;;2.80;1.00;;;;;;;;;;5117275;28;20024;-57
2022/12/24 00:27:12;;;;;;;1.45;0.50;;;;;;;;;;5117102;28;20081;-57
2022/12/24 00:29:38;;;;;;;2.45;1.20;;;;;;;;;;5116831;28;20125;-55
2022/12/24 00:32:08;;;;;;;2.58;1.58;;;;;;;;;;5117087;28;20034;-55
2022/12/24 00:34:34;;;;;;;2.58;1.13;;;;;;;;;;5117561;28;20031;-52
2022/12/24 00:37:00;;;;;;;1.77;0.88;;;;;;;;;;5116739;28;20027;-57
2022/12/24 00:39:26;;;;;;;1.60;0.65;;;;;;;;;;5116605;28;20055;-55
2022/12/24 00:41:52;;;;;;;3.15;0.93;;;;;;;;;;5116675;28;20121;-54
2022/12/24 00:44:18;;;;;;;2.35;0.73;;;;;;;;;;5116794;28;20383;-57
2022/12/24 00:46:44;;;;;;;1.95;0.88;;;;;;;;;;5116629;28;20027;-55
2022/12/24 00:49:11;;;;;;;2.13;1.05;;;;;;;;;;5116498;28;20031;-60
2022/12/24 00:51:37;;;;;;;1.92;0.77;;;;;;;;;;5116431;28;20392;-57
2022/12/24 00:54:03;;;;;;;3.78;0.82;;;;;;;;;;5116635;28;20487;-54
2022/12/24 00:56:29;;;;;;;4.55;1.63;;;;;;;;;;5116005;28;20027;-57
2022/12/24 00:58:55;;;;;;;3.80;0.52;;;;;;;;;;5116269;28;20028;-57
2022/12/24 01:01:21;;;;;;;2.75;1.85;;;;;;;;;;5115895;28;20024;-57
2022/12/24 01:03:48;;;;;;;1.67;0.70;;;;;;;;;;5116994;28;20035;-57
2022/12/24 01:06:15;;;;;;;3.38;1.10;;;;;;;;;;5116400;28;20028;-57
2022/12/24 01:08:41;;;;;;;1.98;1.05;;;;;;;;;;5115946;28;20385;-60
2022/12/24 01:11:07;;;;;;;3.90;0.70;;;;;;;;;;5116091;28;20502;-60
2022/12/24 01:13:33;;;;;;;3.47;1.23;;;;;;;;;;5116036;28;20457;-54
2022/12/24 01:15:59;;;;;;;1.08;0.50;;;;;;;;;;5116590;28;20172;-55
2022/12/24 01:18:25;;;;;;;1.83;0.85;;;;;;;;;;5115895;28;20059;-57
2022/12/24 01:20:56;;;;;;;4.05;1.48;;;;;;;;;;5115878;28;20307;-57
2022/12/24 01:23:22;;;;;;;3.10;0.88;;;;;;;;;;5115722;28;20020;-57
2022/12/24 01:25:48;;;;;;;2.58;1.05;;;;;;;;;;5116078;28;20026;-57
2022/12/24 01:28:14;;;;;;;3.28;1.20;;;;;;;;;;5115748;28;20035;-56
2022/12/24 01:30:40;;;;;;;5.82;1.38;;;;;;;;;;5115882;28;20028;-57
2022/12/24 01:33:06;;;;;;;7.88;1.20;;;;;;;;;;5115627;28;20055;-58
2022/12/24 01:35:32;;;;;;;2.53;0.65;;;;;;;;;;5116176;28;20027;-56
2022/12/24 01:37:58;;;;;;;4.65;1.08;;;;;;;;;;5116097;28;20027;-58
2022/12/24 01:43:23;;;;;;;5.15;0.73;;;;;;;;;;5115746;28;20031;-58
2022/12/24 01:45:55;;;;;;;4.05;1.52;;;;;;;;;;5115837;28;20110;-58
2022/12/24 01:48:30;;;;;;;2.33;1.15;;;;;;;;;;5115725;28;20093;-55
2022/12/24 01:51:02;;;;;;;4.88;0.82;;;;;;;;;;5115577;28;20099;-57
2022/12/24 01:53:28;;;;;;;3.85;0.90;;;;;;;;;;5115195;28;20031;-57
2022/12/24 01:55:54;;;;;;;1.67;0.63;;;;;;;;;;5114418;28;20039;-58
2022/12/24 01:58:21;;;;;;;3.78;0.88;;;;;;;;;;5115544;28;20032;-58
2022/12/24 02:00:47;;;;;;;5.45;0.95;;;;;;;;;;5114974;28;20077;-57
2022/12/24 02:03:13;;;;;;;4.22;1.08;;;;;;;;;;5115273;28;20048;-58
2022/12/24 02:05:47;;;;;;;1.85;0.90;;;;;;;;;;5114744;28;20072;-56
2022/12/24 02:08:13;;;;;;;2.83;0.93;;;;;;;;;;5114318;28;20035;-56
2022/12/24 02:10:39;;;;;;;4.20;1.35;;;;;;;;;;5114652;28;20461;-56
2022/12/24 02:13:06;;;;;;;5.28;1.05;;;;;;;;;;5115087;28;20029;-56
2022/12/24 02:15:44;;;;;;;3.65;1.33;;;;;;;;;;5115115;28;20062;-56
2022/12/24 02:18:17;;;;;;;3.78;1.08;;;;;;;;;;5115032;28;20032;-56
2022/12/24 02:20:43;;;;;;;2.17;1.02;;;;;;;;;;5115026;28;20020;-55
2022/12/24 02:23:31;;;;;;;7.70;1.23;;;;;;;;;;5114381;28;20080;-56
2022/12/24 02:26:07;;;;;;;2.05;1.30;;;;;;;;;;5115118;28;20028;-55
2022/12/24 02:28:42;;;;;;;8.10;1.20;;;;;;;;;;5115114;28;20032;-56
2022/12/24 02:31:17;;;;;;;3.05;1.08;;;;;;;;;;5114477;28;20054;-54
2022/12/24 02:34:03;;;;;;;2.17;0.85;;;;;;;;;;5114542;28;20121;-56
2022/12/24 02:36:33;;;;;;;1.33;0.93;;;;;;;;;;5114462;28;20031;-54
2022/12/24 02:39:04;;;;;;;3.17;1.02;;;;;;;;;;5114337;28;20023;-56
2022/12/24 02:42:04;;;;;;;2.78;1.05;;;;;;;;;;5114316;28;20102;-56
2022/12/24 02:44:18;;;;;;;5.57;1.10;;;;;;;;;;5114120;28;20031;-57
2022/12/24 02:46:44;;;;;;;3.38;0.90;;;;;;;;;;5114201;28;20118;-56
2022/12/24 02:49:11;;;;;;;9.07;1.25;;;;;;;;;;5113954;28;20473;-56
2022/12/24 02:51:37;;;;;;;7.32;1.75;;;;;;;;;;5114425;28;20031;-57
2022/12/24 02:54:03;;;;;;;4.13;1.17;;;;;;;;;;5114683;28;20096;-55
2022/12/24 02:56:41;;;;;;;2.05;0.82;;;;;;;;;;5114098;28;20027;-56
2022/12/24 02:59:25;;;;;;;0.98;0.55;;;;;;;;;;5114163;28;20039;-57
2022/12/24 03:02:07;;;;;;;4.28;1.02;;;;;;;;;;5114085;28;20130;-56
2022/12/24 03:04:52;;;;;;;2.65;0.93;;;;;;;;;;5114153;28;20058;-56
2022/12/24 03:07:20;;;;;;;4.00;0.98;;;;;;;;;;5113919;28;20028;-54
2022/12/24 03:09:49;;;;;;;8.23;1.48;;;;;;;;;;5114035;28;20027;-57
2022/12/24 03:12:17;;;;;;;3.33;0.85;;;;;;;;;;5114353;28;20050;-56
2022/12/24 03:14:44;;;;;;;6.03;1.63;;;;;;;;;;5114670;28;20057;-57
2022/12/24 03:17:10;;;;;;;3.00;1.75;;;;;;;;;;5114047;28;20069;-56
2022/12/24 03:19:36;;;;;;;1.13;0.80;;;;;;;;;;5115007;28;20027;-58
2022/12/24 03:22:04;;;;;;;6.50;1.08;;;;;;;;;;5118148;28;20032;-58
2022/12/24 03:24:30;;;;;;;3.78;1.65;;;;;;;;;;5118028;28;20031;-58
2022/12/24 03:26:56;;;;;;;8.70;1.63;;;;;;;;;;5117921;28;20031;-57
2022/12/24 03:29:22;;;;;;;3.90;1.27;;;;;;;;;;5117976;28;20103;-57
2022/12/24 03:31:49;;;;;;;2.67;1.02;;;;;;;;;;5117897;28;20053;-58
2022/12/24 03:34:16;;;;;;;4.90;1.50;;;;;;;;;;5118550;28;20353;-58
2022/12/24 03:36:42;;;;;;;4.75;1.52;;;;;;;;;;5118643;28;20020;-56
2022/12/24 03:39:09;;;;;;;2.13;0.82;;;;;;;;;;5117857;28;20032;-57
2022/12/24 03:41:35;;;;;;;4.53;1.17;;;;;;;;;;5118299;28;20073;-58
2022/12/24 03:44:01;;;;;;;4.22;1.55;;;;;;;;;;5117743;28;20024;-56
2022/12/24 03:46:27;;;;;;;6.43;1.23;;;;;;;;;;5117989;28;20461;-58
2022/12/24 03:48:54;;;;;;;3.92;0.75;;;;;;;;;;5117853;28;20035;-58
2022/12/24 03:51:21;;;;;;;4.05;1.02;;;;;;;;;;5117591;28;20032;-57
2022/12/24 03:53:47;;;;;;;2.75;1.23;;;;;;;;;;5117551;28;20027;-58
2022/12/24 03:56:13;;;;;;;4.57;1.70;;;;;;;;;;5117435;28;20027;-58
2022/12/24 03:58:39;;;;;;;3.05;1.25;;;;;;;;;;5117744;28;20366;-58
2022/12/24 04:01:05;;;;;;;3.03;1.27;;;;;;;;;;5098814;28;20024;-58
2022/12/24 04:03:31;;;;;;;3.67;1.00;;;;;;;;;;5117410;28;20389;-57
2022/12/24 04:06:07;;;;;;;3.25;0.98;;;;;;;;;;5117930;28;20027;-58
2022/12/24 04:08:33;;;;;;;3.28;1.00;;;;;;;;;;5117434;28;20089;-58
2022/12/24 04:10:59;;;;;;;5.65;1.60;;;;;;;;;;5117503;28;20019;-58
2022/12/24 04:13:25;;;;;;;5.60;1.38;;;;;;;;;;5117410;28;20020;-58
2022/12/24 04:16:02;;;;;;;7.55;1.63;;;;;;;;;;5117430;28;20047;-57
2022/12/24 04:18:28;;;;;;;7.65;1.10;;;;;;;;;;5117016;28;20043;-58
2022/12/24 04:20:54;;;;;;;2.50;1.27;;;;;;;;;;5117627;28;20024;-57
2022/12/24 04:23:20;;;;;;;5.32;1.17;;;;;;;;;;5117259;28;20028;-58
2022/12/24 04:25:46;;;;;;;6.18;2.17;;;;;;;;;;5117305;28;20047;-58
2022/12/24 04:28:13;;;;;;;4.55;1.63;;;;;;;;;;5116518;28;20120;-58
2022/12/24 04:30:39;;;;;;;2.38;1.08;;;;;;;;;;5116886;28;20165;-58
2022/12/24 04:33:05;;;;;;;2.88;0.88;;;;;;;;;;5116218;28;20411;-57
2022/12/24 04:35:31;;;;;;;5.68;1.13;;;;;;;;;;5117202;28;20128;-58
2022/12/24 04:37:57;;;;;;;3.70;0.75;;;;;;;;;;5116818;28;20059;-58
2022/12/24 04:40:24;;;;;;;6.50;1.35;;;;;;;;;;5116959;28;20027;-58
2022/12/24 04:42:50;;;;;;;3.42;1.05;;;;;;;;;;5117207;28;20106;-57
2022/12/24 04:45:16;;;;;;;3.55;1.00;;;;;;;;;;5117015;28;20028;-56
2022/12/24 04:47:42;;;;;;;5.88;1.23;;;;;;;;;;5116205;28;20039;-57
2022/12/24 04:50:08;;;;;;;2.20;1.33;;;;;;;;;;5116505;28;20405;-57
2022/12/24 04:52:34;;;;;;;2.42;1.00;;;;;;;;;;5116550;28;20099;-58
2022/12/24 04:55:00;;;;;;;5.05;1.40;;;;;;;;;;5116623;28;20028;-57
2022/12/24 04:57:26;;;;;;;3.78;1.38;;;;;;;;;;5116878;28;20038;-58
2022/12/24 04:59:52;;;;;;;3.33;1.40;;;;;;;;;;5116839;28;20091;-56
2022/12/24 05:02:18;;;;;;;1.92;0.75;;;;;;;;;;5116246;28;20074;-55
2022/12/24 05:04:44;;;;;;;1.70;1.20;;;;;;;;;;5116339;28;20477;-58
2022/12/24 05:07:10;;;;;;;6.15;1.92;;;;;;;;;;5116189;28;20181;-57
2022/12/24 05:09:36;;;;;;;0.77;0.43;;;;;;;;;;5116792;28;20073;-58
2022/12/24 05:12:02;;;;;;;3.95;1.38;;;;;;;;;;5098151;28;20130;-56
2022/12/24 05:14:28;;;;;;;2.08;1.02;;;;;;;;;;5116739;28;20023;-57
2022/12/24 05:16:54;;;;;;;3.03;1.45;;;;;;;;;;5116381;28;20110;-57
2022/12/24 05:19:20;;;;;;;3.25;1.02;;;;;;;;;;5115949;28;20027;-55
2022/12/24 05:26:20;;;;;;;2.38;1.40;;;;;;;;;;5116532;28;20028;-57
2022/12/24 05:27:16;;;;;;;3.00;0.60;;;;;;;;;;5115634;28;20074;-54
2022/12/24 05:29:42;;;;;;;4.57;0.77;;;;;;;;;;5116016;28;20043;-57
2022/12/24 05:32:08;;;;;;;5.70;2.47;;;;;;;;;;5115696;28;20095;-57
2022/12/24 05:34:34;;;;;;;2.88;1.58;;;;;;;;;;5116289;28;20024;-58
2022/12/24 05:37:00;;;;;;;4.72;1.80;;;;;;;;;;5116132;28;20031;-56
2022/12/24 05:39:26;;;;;;;3.08;1.13;;;;;;;;;;5116345;28;20038;-56
2022/12/24 05:41:52;;;;;;;4.57;1.70;;;;;;;;;;5097466;28;20016;-56
2022/12/24 05:44:18;;;;;;;6.20;0.95;;;;;;;;;;5114842;28;20024;-57
2022/12/24 05:46:44;;;;;;;2.72;1.15;;;;;;;;;;5115310;28;20024;-58
2022/12/24 05:49:10;;;;;;;3.50;1.30;;;;;;;;;;5115665;28;20165;-58
2022/12/24 05:51:36;;;;;;;2.42;1.08;;;;;;;;;;5115410;28;20081;-57
2022/12/24 05:54:02;;;;;;;3.65;2.03;;;;;;;;;;5115807;28;20019;-57
2022/12/24 05:56:28;;;;;;;3.92;1.23;;;;;;;;;;5115279;28;20051;-57
2022/12/24 05:58:54;;;;;;;2.88;1.02;;;;;;;;;;5115999;28;20128;-58
2022/12/24 06:01:21;;;;;;;6.13;1.40;;;;;;;;;;5115210;28;20036;-56
2022/12/24 06:03:48;;;;;;;3.88;1.35;;;;;;;;;;5115991;28;20023;-57
2022/12/24 06:06:18;;;;;;;2.45;1.50;;;;;;;;;;5115296;28;20378;-56
2022/12/24 06:08:43;;;;;;;2.95;0.90;;;;;;;;;;5114934;28;20035;-57
2022/12/24 06:11:11;;;;;;;6.88;1.35;;;;;;;;;;5115055;28;20031;-58
2022/12/24 06:13:37;;;;;;;3.60;1.27;;;;;;;;;;5115295;28;20114;-58
2022/12/24 06:16:05;;;;;;;9.63;1.55;;;;;;;;;;5115097;28;20086;-57
2022/12/24 06:18:31;;;;;;;2.85;0.98;;;;;;;;;;5114616;28;20047;-54
2022/12/24 06:20:58;;;;;;;3.65;1.80;;;;;;;;;;5115047;28;20084;-56
2022/12/24 06:23:24;;;;;;;7.18;1.08;;;;;;;;;;5115313;28;20047;-58
2022/12/24 06:25:51;;;;;;;1.77;0.70;;;;;;;;;;5114760;28;20024;-55
2022/12/24 06:28:17;;;;;;;6.38;1.20;;;;;;;;;;5115216;28;20076;-58
2022/12/24 06:30:47;;;;;;;3.08;1.20;;;;;;;;;;5114426;28;20493;-54
2022/12/24 06:33:13;;;;;;;3.85;1.50;;;;;;;;;;5114623;28;20019;-58
2022/12/24 06:35:39;;;;;;;3.80;1.75;;;;;;;;;;5114939;28;20078;-57
2022/12/24 06:38:05;;;;;;;4.75;1.98;;;;;;;;;;5114628;28;20110;-58
2022/12/24 06:40:31;;;;;;;9.63;2.28;;;;;;;;;;5114525;28;20100;-58
2022/12/24 06:42:57;;;;;;;4.20;2.03;;;;;;;;;;5114519;28;20047;-56
2022/12/24 06:45:22;;;;;;;2.72;1.63;;;;;;;;;;5114695;28;20080;-57
2022/12/24 06:47:49;;;;;;;6.70;1.17;;;;;;;;;;5114313;28;20023;-56
2022/12/24 06:50:15;;;;;;;2.50;1.42;;;;;;;;;;5114960;28;20412;-56
2022/12/24 06:52:41;;;;;;;5.15;1.23;;;;;;;;;;5115152;28;20032;-58
2022/12/24 06:55:07;;;;;;;2.40;0.93;;;;;;;;;;5114163;28;20027;-56
2022/12/24 06:57:33;;;;;;;5.50;1.63;;;;;;;;;;5114372;28;20034;-57
2022/12/24 06:59:59;;;;;;;4.53;1.23;;;;;;;;;;5115090;28;20398;-57
2022/12/24 07:02:25;;;;;;;2.25;1.17;;;;;;;;;;5114041;28;20051;-58
2022/12/24 07:04:51;;;;;;;4.32;1.10;;;;;;;;;;5114296;28;20035;-58
2022/12/24 07:07:17;;;;;;;2.70;0.90;;;;;;;;;;5113905;28;20089;-58
2022/12/24 07:09:43;;;;;;;3.38;1.33;;;;;;;;;;5113898;28;20031;-58
2022/12/24 07:12:09;;;;;;;1.88;1.02;;;;;;;;;;5114172;28;20024;-58
2022/12/24 07:14:35;;;;;;;3.20;1.13;;;;;;;;;;5114722;28;20028;-58
2022/12/24 07:17:01;;;;;;;2.05;1.00;;;;;;;;;;5114427;28;20031;-57
2022/12/24 07:19:27;;;;;;;3.35;1.10;;;;;;;;;;5114024;28;20027;-58
2022/12/24 07:21:53;;;;;;;4.70;1.20;;;;;;;;;;5114078;28;20023;-58
2022/12/24 07:24:19;;;;;;;3.00;1.23;;;;;;;;;;5114377;28;20024;-57
2022/12/24 07:26:45;;;;;;;2.90;1.45;;;;;;;;;;5113946;28;20062;-56
2022/12/24 07:29:11;;;;;;;6.47;1.70;;;;;;;;;;5113997;28;20533;-56
2022/12/24 07:31:37;;;;;;;6.07;1.20;;;;;;;;;;5114245;28;20107;-58
2022/12/24 07:34:03;;;;;;;2.90;1.40;;;;;;;;;;5114711;28;20020;-58
2022/12/24 07:36:29;;;;;;;1.60;0.88;;;;;;;;;;5113891;28;20501;-57
2022/12/24 07:38:55;;;;;;;3.90;0.85;;;;;;;;;;5113887;28;20024;-58
2022/12/24 07:41:22;;;;;;;3.22;1.30;;;;;;;;;;5114599;28;20034;-56
2022/12/24 07:43:47;;;;;;;3.55;1.63;;;;;;;;;;5114180;28;20024;-58
2022/12/24 07:46:14;;;;;;;2.90;0.65;;;;;;;;;;5114400;28;20020;-58
2022/12/24 07:48:40;;;;;;;2.60;1.42;;;;;;;;;;5113742;28;20121;-54
2022/12/24 07:51:05;;;;;;;3.88;1.13;;;;;;;;;;5113792;28;20024;-55
2022/12/24 07:53:32;;;;;;;3.38;1.77;;;;;;;;;;5113720;28;20055;-55
2022/12/24 07:55:57;;;;;;;5.47;1.73;;;;;;;;;;5113825;28;20032;-56
2022/12/24 07:58:24;;;;;;;4.72;0.75;;;;;;;;;;5113654;28;20050;-55
2022/12/24 08:00:55;;;;;;;7.10;1.58;;;;;;;;;;5114187;28;20111;-54
2022/12/24 08:03:21;;;;;;;3.35;1.02;;;;;;;;;;5114310;28;20388;-54
2022/12/24 08:05:47;;;;;;;6.15;1.77;;;;;;;;;;5113949;28;20042;-55
2022/12/24 08:08:14;;;;;;;2.92;1.40;;;;;;;;;;5116508;28;20448;-54
2022/12/24 08:10:40;;;;;;;3.13;1.20;;;;;;;;;;5117054;28;20106;-54
2022/12/24 08:13:06;;;;;;;4.32;2.05;;;;;;;;;;5117351;28;20030;-55
2022/12/24 08:15:32;;;;;;;5.03;1.98;;;;;;;;;;5117967;28;20024;-56
2022/12/24 08:17:58;;;;;;;12.65;2.78;;;;;;;;;;5117128;28;20039;-55
2022/12/24 08:20:24;;;;;;;4.47;2.15;;;;;;;;;;5117404;28;20023;-54
2022/12/24 08:22:50;;;;;;;6.18;1.63;;;;;;;;;;5117097;28;20024;-54
2022/12/24 08:25:16;;;;;;;3.33;1.08;;;;;;;;;;5117883;28;20077;-51
2022/12/24 08:27:42;;;;;;;4.05;1.02;;;;;;;;;;5116929;28;20540;-56
2022/12/24 08:30:08;;;;;;;6.03;1.17;;;;;;;;;;5117003;28;20028;-52
2022/12/24 08:32:34;;;;;;;11.45;2.15;;;;;;;;;;5117399;28;20392;-51
2022/12/24 08:35:00;;;;;;;4.78;0.82;;;;;;;;;;5117209;28;20023;-52
2022/12/24 08:37:26;;;;;;;8.25;1.35;;;;;;;;;;5116832;28;20384;-55
2022/12/24 08:39:52;;;;;;;9.82;1.95;;;;;;;;;;5116696;28;20028;-49
2022/12/24 08:42:18;;;;;;;5.63;1.45;;;;;;;;;;5116656;28;20457;-56
2022/12/24 08:44:44;;;;;;;5.65;1.30;;;;;;;;;;5117069;28;20419;-50
2022/12/24 08:47:10;;;;;;;6.97;2.08;;;;;;;;;;5116723;28;20059;-52
2022/12/24 08:49:36;;;;;;;1.85;1.02;;;;;;;;;;5117251;28;20027;-53
2022/12/24 08:52:02;;;;;;;3.10;1.35;;;;;;;;;;5116429;28;20023;-52
2022/12/24 08:54:28;;;;;;;6.10;1.08;;;;;;;;;;5116687;28;20035;-52
2022/12/24 08:56:54;;;;;;;5.88;1.52;;;;;;;;;;5116392;28;20387;-53
2022/12/24 08:59:20;;;;;;;4.03;1.98;;;;;;;;;;5116440;28;20020;-54
2022/12/24 09:01:46;;;;;;;5.00;1.33;;;;;;;;;;5116259;28;20048;-53
2022/12/24 09:04:12;;;;;;;2.13;0.80;;;;;;;;;;5116308;28;20034;-54
2022/12/24 09:06:38;;;;;;;6.93;1.48;;;;;;;;;;5116700;28;20023;-55
2022/12/24 09:09:04;;;;;;;4.63;1.73;;;;;;;;;;5116407;28;20042;-55
2022/12/24 09:11:30;;;;;;;6.00;1.58;;;;;;;;;;5116180;28;20028;-53
2022/12/24 09:13:56;;;;;;;5.80;1.50;;;;;;;;;;5116426;28;20474;-55
2022/12/24 09:16:22;;;;;;;7.63;1.90;;;;;;;;;;5116003;28;20027;-53
2022/12/24 09:18:48;;;;;;;4.03;1.52;;;;;;;;;;5115788;28;20032;-54
2022/12/24 09:21:16;;;;;;;2.85;1.45;;;;;;;;;;5115979;28;20028;-53
2022/12/24 09:23:43;;;;;;;4.20;1.98;;;;;;;;;;5115872;28;20077;-52
2022/12/24 09:26:11;;;;;;;5.93;2.13;;;;;;;;;;5115919;28;20025;-53
2022/12/24 09:28:37;;;;;;;6.25;1.42;;;;;;;;;;5116268;28;20525;-55
2022/12/24 09:31:04;;;;;;;4.45;1.13;;;;;;;;;;5115999;28;20114;-52
2022/12/24 09:33:31;;;;;;;9.95;1.85;;;;;;;;;;5115691;28;20354;-56
2022/12/24 09:35:57;;;;;;;9.02;2.40;;;;;;;;;;5116059;28;20032;-53
2022/12/24 09:38:23;;;;;;;9.38;1.70;;;;;;;;;;5115559;28;20028;-56
2022/12/24 09:40:50;;;;;;;4.93;1.95;;;;;;;;;;5115755;28;20028;-53
2022/12/24 09:43:18;;;;;;;5.30;2.30;;;;;;;;;;5115412;28;20028;-55
2022/12/24 09:46:04;;;;;;;5.72;2.10;;;;;;;;;;5115567;28;20031;-56
2022/12/24 09:48:32;;;;;;;10.93;1.38;;;;;;;;;;5098056;28;20047;-56
2022/12/24 09:51:07;;;;;;;5.85;1.80;;;;;;;;;;5115291;28;20419;-56
2022/12/24 09:53:43;;;;;;;5.35;1.25;;;;;;;;;;5115573;28;20024;-52
2022/12/24 09:56:14;;;;;;;10.63;3.20;;;;;;;;;;5115780;28;20088;-56
2022/12/24 09:58:41;;;;;;;5.80;1.52;;;;;;;;;;5115068;28;20031;-56
2022/12/24 10:01:11;;;;;;;3.25;1.20;;;;;;;;;;5114846;28;20491;-54
2022/12/24 10:03:37;;;;;;;6.03;2.83;;;;;;;;;;5114968;28;20048;-54
2022/12/24 10:06:03;;;;;;;4.93;1.60;;;;;;;;;;5115860;28;20026;-56
2022/12/24 10:08:34;;;;;;;6.18;1.40;;;;;;;;;;5115271;28;20107;-56
2022/12/24 10:11:05;;;;;;;3.30;1.67;;;;;;;;;;5115270;28;20030;-54
2022/12/24 10:13:31;;;;;;;3.58;1.48;;;;;;;;;;5115605;28;20107;-55
2022/12/24 10:16:01;;;;;;;4.22;1.85;;;;;;;;;;5114995;28;20057;-56
2022/12/24 10:18:35;;;;;;;5.40;1.27;;;;;;;;;;5114911;28;20069;-54
2022/12/24 10:21:15;;;;;;;6.15;1.65;;;;;;;;;;5115685;28;20020;-54
2022/12/24 10:23:41;;;;;;;4.13;2.38;;;;;;;;;;5114730;28;20149;-54
2022/12/24 10:26:12;;;;;;;7.78;2.03;;;;;;;;;;5114823;28;20073;-55
2022/12/24 10:28:57;;;;;;;10.68;2.13;;;;;;;;;;5114589;28;20381;-52
2022/12/24 10:31:26;;;;;;;6.07;2.10;;;;;;;;;;5114233;28;20027;-50
2022/12/24 10:33:57;;;;;;;7.28;1.75;;;;;;;;;;5114415;28;20020;-52
2022/12/24 10:36:22;;;;;;;;;;;;;;;;;;5114975;28;20020;-52
2022/12/24 10:38:48;;;;;;;5.40;1.73;;;;;;;;;;5114558;28;20271;-48
2022/12/24 10:41:15;;;;;;;3.80;1.67;;;;;;;;;;5115090;28;20035;-54
2022/12/24 10:43:42;;;;;;;4.97;2.15;;;;;;;;;;5114502;28;20126;-53
2022/12/24 10:46:14;;;;;;;5.80;1.48;;;;;;;;;;5115041;28;20034;-53
2022/12/24 10:48:43;;;;;;;4.45;1.80;;;;;;;;;;5114815;28;20035;-51
2022/12/24 10:51:15;;;;;;;7.40;1.73;;;;;;;;;;5114881;28;20024;-56
2022/12/24 10:53:44;;;;;;;4.15;1.30;;;;;;;;;;5096746;28;20353;-56
2022/12/24 10:56:11;;;;;;;5.68;1.55;;;;;;;;;;5114295;28;20403;-53
2022/12/24 10:58:42;;;;;;;6.50;1.67;;;;;;;;;;5114544;28;20553;-51
2022/12/24 11:01:08;;;;;;;3.00;1.58;;;;;;;;;;5114518;28;20051;-48
2022/12/24 11:03:35;;;;;;;4.28;1.70;;;;;;;;;;5114927;28;20457;-48
2022/12/24 11:06:04;;;;;;;2.15;1.00;;;;;;;;;;5114820;28;20024;-49
2022/12/24 11:08:30;;;;;;;4.88;1.98;;;;;;;;;;5114006;28;20069;-49
2022/12/24 11:11:01;;;;;;;6.72;1.83;;;;;;;;;;5114206;28;20028;-50
2022/12/24 11:13:28;;;;;;;4.28;1.52;;;;;;;;;;5114458;28;20039;-53
2022/12/24 11:16:05;;;;;;;8.23;1.42;;;;;;;;;;5096129;28;20031;-52
2022/12/24 11:18:33;;;;;;;5.60;1.77;;;;;;;;;;5113981;28;20031;-50
2022/12/24 11:20:59;;;;;;;4.05;1.52;;;;;;;;;;5114044;28;20027;-55
2022/12/24 11:23:26;;;;;;;3.55;2.08;;;;;;;;;;5114517;28;20461;-55
2022/12/24 11:25:52;;;;;;;1.63;0.93;;;;;;;;;;5114452;28;20453;-55
2022/12/24 11:28:23;;;;;;;2.97;1.20;;;;;;;;;;5114508;28;20193;-56
2022/12/24 11:31:06;;;;;;;6.45;1.63;;;;;;;;;;5114341;28;20058;-53
2022/12/24 11:33:45;;;;;;;2.92;1.65;;;;;;;;;;5114433;28;20369;-54
2022/12/24 11:36:12;;;;;;;5.95;1.30;;;;;;;;;;5114780;28;20339;-56
2022/12/24 11:38:38;;;;;;;4.90;1.38;;;;;;;;;;5114013;28;20024;-56
2022/12/24 11:41:10;;;;;;;9.65;2.00;;;;;;;;;;5113590;28;20061;-53
2022/12/24 11:43:45;;;;;;;2.72;0.80;;;;;;;;;;5117239;28;20032;-52
2022/12/24 11:46:14;;;;;;;2.95;1.33;;;;;;;;;;5118026;28;20020;-55
2022/12/24 11:48:40;;;;;;;7.15;1.80;;;;;;;;;;5117715;28;20028;-55
2022/12/24 11:51:17;;;;;;;3.97;1.42;;;;;;;;;;5118149;28;20019;-56
2022/12/24 11:53:49;;;;;;;5.47;2.00;;;;;;;;;;5118340;28;20105;-54
2022/12/24 11:56:24;;;;;;;6.28;1.77;;;;;;;;;;5117647;28;20514;-52
2022/12/24 11:58:56;;;;;;;3.70;1.80;;;;;;;;;;5118062;28;20030;-54
2022/12/24 12:01:37;;;;;;;6.95;1.88;;;;;;;;;;5117271;28;20362;-56
2022/12/24 12:04:19;;;;;;;6.97;1.77;;;;;;;;;;5117737;28;20073;-53
2022/12/24 12:06:47;;;;;;;3.78;1.48;;;;;;;;;;5117414;28;20488;-54
2022/12/24 12:09:17;;;;;;;4.40;1.65;;;;;;;;;;5117369;28;20032;-50
2022/12/24 12:11:44;;;;;;;4.25;2.30;;;;;;;;;;5117620;28;20028;-55
2022/12/24 12:14:16;;;;;;;7.57;2.15;;;;;;;;;;5099928;28;20034;-54
2022/12/24 12:17:00;;;;;;;5.82;1.52;;;;;;;;;;5117546;28;20374;-56
2022/12/24 12:19:27;;;;;;;5.70;2.10;;;;;;;;;;5117136;28;20054;-54
2022/12/24 12:21:53;;;;;;;1.98;1.00;;;;;;;;;;5117102;28;20028;-54
2022/12/24 12:24:22;;;;;;;4.63;1.27;;;;;;;;;;5117669;28;20449;-53
2022/12/24 12:26:48;;;;;;;9.13;1.48;;;;;;;;;;5117117;28;20396;-53
2022/12/24 12:29:25;;;;;;;8.98;2.03;;;;;;;;;;5116991;28;20035;-53
2022/12/24 12:31:55;;;;;;;6.00;0.98;;;;;;;;;;5117333;28;20441;-54
2022/12/24 12:34:28;;;;;;;8.38;2.45;;;;;;;;;;5117320;28;20050;-54
2022/12/24 12:36:58;;;;;;;1.67;0.60;;;;;;;;;;5117281;28;20520;-53
2022/12/24 12:39:23;;;;;;;3.38;1.13;;;;;;;;;;5117377;28;20020;-56
2022/12/24 12:42:01;;;;;;;10.45;2.67;;;;;;;;;;5116860;28;20026;-54
2022/12/24 12:44:46;;;;;;;8.93;2.42;;;;;;;;;;5117149;28;20024;-55
2022/12/24 12:47:12;;;;;;;4.13;1.08;;;;;;;;;;5117364;28;20043;-53
2022/12/24 12:49:47;;;;;;;4.45;1.10;;;;;;;;;;5116249;28;20023;-54
2022/12/24 12:52:16;;;;;;;8.55;2.40;;;;;;;;;;5116488;28;20023;-51
2022/12/24 12:54:48;;;;;;;5.45;1.33;;;;;;;;;;5116839;28;20028;-53
2022/12/24 12:57:16;;;;;;;7.05;1.65;;;;;;;;;;5116472;28;20373;-53
2022/12/24 12:59:50;;;;;;;3.05;1.23;;;;;;;;;;5116498;28;20028;-54
2022/12/24 13:02:39;;;;;;;8.00;2.45;;;;;;;;;;5116309;28;20140;-55
2022/12/24 13:05:21;;;;;;;9.48;2.60;;;;;;;;;;5116366;28;20035;-54
2022/12/24 13:07:53;;;;;;;7.43;2.05;;;;;;;;;;5116173;28;20042;-53
2022/12/24 13:10:22;;;;;;;6.57;1.63;;;;;;;;;;5116223;28;20473;-52
2022/12/24 13:12:58;;;;;;;6.88;2.03;;;;;;;;;;5116073;28;20023;-52
2022/12/24 13:15:46;;;;;;;4.75;1.30;;;;;;;;;;5116766;28;20047;-56
2022/12/24 13:18:16;;;;;;;2.67;1.30;;;;;;;;;;5116395;28;20039;-52
2022/12/24 13:20:46;;;;;;;7.60;1.48;;;;;;;;;;5116439;28;20050;-54
2022/12/24 13:23:13;;;;;;;4.57;1.73;;;;;;;;;;5115917;28;20092;-53
2022/12/24 13:25:44;;;;;;;9.73;1.45;;;;;;;;;;5115914;28;20027;-55
2022/12/24 13:28:22;;;;;;;2.60;1.27;;;;;;;;;;5116030;28;20365;-54
2022/12/24 13:30:49;;;;;;;5.28;1.83;;;;;;;;;;5115830;28;20049;-54
2022/12/24 13:33:34;;;;;;;6.43;4.50;;;;;;;;;;5115997;28;20024;-55
2022/12/24 13:36:01;;;;;;;14.77;6.70;;;;;;;;;;5116232;28;20024;-54
2022/12/24 13:38:27;;;;;;;15.07;4.47;;;;;;;;;;5115708;28;20537;-52
2022/12/24 13:40:53;;;;;;;396.60;181.27;;;;;;;;;;5115649;28;20023;-54
2022/12/24 13:43:19;;;;;;;208.63;93.47;;;;;;;;;;5116056;28;20027;-55
2022/12/24 13:45:47;;;;;;;84.10;35.30;;;;;;;;;;5115840;28;20027;-53
2022/12/24 13:48:16;;;;;;;10.85;5.05;;;;;;;;;;5115418;28;20377;-54
2022/12/24 13:50:49;;;;;;;12.75;4.28;;;;;;;;;;5115720;28;20028;-56
2022/12/24 13:53:22;;;;;;;29.35;11.10;;;;;;;;;;5115254;28;20373;-56
2022/12/24 13:55:52;;;;;;;6.30;1.73;;;;;;;;;;5115298;28;20543;-53
2022/12/24 13:58:20;;;;;;;6.20;2.97;;;;;;;;;;5115544;28;20118;-55
2022/12/24 14:00:57;;;;;;;8.43;2.25;;;;;;;;;;5115146;28;20031;-49
2022/12/24 14:03:25;;;;;;;9.55;5.00;;;;;;;;;;5116210;28;20052;-52
2022/12/24 14:05:53;;;;;;;6.28;2.58;;;;;;;;;;5114863;28;20506;-55
2022/12/24 14:08:24;;;;;;;4.95;2.05;;;;;;;;;;5114483;28;20088;-53
2022/12/24 14:10:59;;;;;;;8.18;3.85;;;;;;;;;;5115054;28;20024;-55
2022/12/24 14:13:37;;;;;;;14.07;2.97;;;;;;;;;;5096970;28;20031;-55
2022/12/24 14:16:04;;;;;;;30.08;15.00;;;;;;;;;;5115213;28;20024;-50
2022/12/24 14:18:38;;;;;;;6.43;2.08;;;;;;;;;;5114794;28;20067;-55
2022/12/24 14:21:04;;;;;;;9.77;3.20;;;;;;;;;;5114852;28;20369;-52
2022/12/24 14:23:41;;;;;;;15.93;4.70;;;;;;;;;;5114534;28;20031;-55
2022/12/24 14:26:11;;;;;;;10.38;3.10;;;;;;;;;;5114263;28;20461;-54
2022/12/24 14:28:41;;;;;;;5.88;2.92;;;;;;;;;;5114128;28;20043;-53
2022/12/24 14:31:13;;;;;;;4.55;2.03;;;;;;;;;;5114521;28;20377;-55
2022/12/24 14:33:39;;;;;;;4.20;1.67;;;;;;;;;;5114582;28;20034;-54
2022/12/24 14:36:05;;;;;;;3.65;1.67;;;;;;;;;;5113983;28;20107;-52
2022/12/24 14:38:32;;;;;;;9.80;2.67;;;;;;;;;;5114157;28;20032;-54
2022/12/24 14:41:04;;;;;;;7.28;3.10;;;;;;;;;;5114185;28;20032;-50
2022/12/24 14:43:30;;;;;;;6.85;1.95;;;;;;;;;;5114245;28;20032;-49
2022/12/24 14:46:07;;;;;;;7.63;3.55;;;;;;;;;;5114854;28;20484;-54
2022/12/24 14:48:49;;;;;;;5.03;1.13;;;;;;;;;;5114179;28;20035;-52
2022/12/24 14:51:25;;;;;;;5.53;1.60;;;;;;;;;;5114507;28;20036;-50
2022/12/24 14:53:51;;;;;;;12.45;1.50;;;;;;;;;;5114751;28;20027;-50
2022/12/24 14:56:18;;;;;;;4.32;1.55;;;;;;;;;;5114149;28;20054;-52